sensor_id;sensor_type;location;lat;lon;timestamp;pressure;altitude;pressure_sealevel;temperature
28305;BMP280;15569;42.652;23.040;2022-07-23T00:01:33;93382.50;;;29.83
28305;BMP280;15569;42.652;23.040;2022-07-23T00:04:00;93382.50;;;29.83
28305;BMP280;15569;42.652;23.040;2022-07-23T00:06:25;93387.38;;;29.85
28305;BMP280;15569;42.652;23.040;2022-07-23T00:08:51;93380.50;;;29.77
28305;BMP280;15569;42.652;23.040;2022-07-23T00:11:17;93390.16;;;29.85
28305;BMP280;15569;42.652;23.040;2022-07-23T00:13:43;93386.69;;;29.82
28305;BMP280;15569;42.652;23.040;2022-07-23T00:16:09;93381.22;;;29.78
28305;BMP280;15569;42.652;23.040;2022-07-23T00:18:34;93392.31;;;29.82
28305;BMP280;15569;42.652;23.040;2022-07-23T00:20:59;93386.81;;;29.78
28305;BMP280;15569;42.652;23.040;2022-07-23T00:23:25;93378.47;;;29.74
28305;BMP280;15569;42.652;23.040;2022-07-23T00:25:52;93379.88;;;29.75
28305;BMP280;15569;42.652;23.040;2022-07-23T00:28:18;93372.97;;;29.70
28305;BMP280;15569;42.652;23.040;2022-07-23T00:30:43;93387.63;;;29.73
28305;BMP280;15569;42.652;23.040;2022-07-23T00:33:09;93384.19;;;29.70
28305;BMP280;15569;42.652;23.040;2022-07-23T00:35:37;93387.75;;;29.64
28305;BMP280;15569;42.652;23.040;2022-07-23T00:38:04;93376.56;;;29.64
28305;BMP280;15569;42.652;23.040;2022-07-23T00:40:30;93383.63;;;29.63
28305;BMP280;15569;42.652;23.040;2022-07-23T00:42:56;93372.47;;;29.59
28305;BMP280;15569;42.652;23.040;2022-07-23T00:45:21;93382.97;;;29.61
28305;BMP280;15569;42.652;23.040;2022-07-23T00:47:46;93376.03;;;29.56
28305;BMP280;15569;42.652;23.040;2022-07-23T00:50:12;93383.09;;;29.55
28305;BMP280;15569;42.652;23.040;2022-07-23T00:52:39;93378.16;;;29.55
28305;BMP280;15569;42.652;23.040;2022-07-23T00:55:06;93378.06;;;29.59
28305;BMP280;15569;42.652;23.040;2022-07-23T00:57:32;93380.19;;;29.59
28305;BMP280;15569;42.652;23.040;2022-07-23T00:59:57;93379.59;;;29.54
28305;BMP280;15569;42.652;23.040;2022-07-23T01:02:24;93374.72;;;29.53
28305;BMP280;15569;42.652;23.040;2022-07-23T01:04:49;93367.09;;;29.47
28305;BMP280;15569;42.652;23.040;2022-07-23T01:07:15;93371.34;;;29.46
28305;BMP280;15569;42.652;23.040;2022-07-23T01:09:42;93381.13;;;29.47
28305;BMP280;15569;42.652;23.040;2022-07-23T01:12:07;93371.41;;;29.44
28305;BMP280;15569;42.652;23.040;2022-07-23T01:14:33;93381.19;;;29.45
28305;BMP280;15569;42.652;23.040;2022-07-23T01:16:58;93375.56;;;29.45
28305;BMP280;15569;42.652;23.040;2022-07-23T01:19:23;93372.16;;;29.41
28305;BMP280;15569;42.652;23.040;2022-07-23T01:21:50;93370.00;;;29.43
28305;BMP280;15569;42.652;23.040;2022-07-23T01:24:18;93370.06;;;29.41
28305;BMP280;15569;42.652;23.040;2022-07-23T01:26:47;93368.69;;;29.40
28305;BMP280;15569;42.652;23.040;2022-07-23T01:29:13;93359.00;;;29.33
28305;BMP280;15569;42.652;23.040;2022-07-23T01:31:39;93368.69;;;29.40
28305;BMP280;15569;42.652;23.040;2022-07-23T01:34:05;93374.31;;;29.38
28305;BMP280;15569;42.652;23.040;2022-07-23T01:36:32;93361.16;;;29.31
28305;BMP280;15569;42.652;23.040;2022-07-23T01:38:58;93364.59;;;29.33
28305;BMP280;15569;42.652;23.040;2022-07-23T01:41:23;93365.34;;;29.32
28305;BMP280;15569;42.652;23.040;2022-07-23T01:43:48;93372.38;;;29.31
28305;BMP280;15569;42.652;23.040;2022-07-23T01:46:14;93368.88;;;29.30
28305;BMP280;15569;42.652;23.040;2022-07-23T01:48:39;93367.50;;;29.29
28305;BMP280;15569;42.652;23.040;2022-07-23T01:51:05;93364.00;;;29.29
28305;BMP280;15569;42.652;23.040;2022-07-23T01:53:30;93361.88;;;29.29
28305;BMP280;15569;42.652;23.040;2022-07-23T01:55:59;93364.06;;;29.25
28305;BMP280;15569;42.652;23.040;2022-07-23T01:58:26;93366.19;;;29.24
28305;BMP280;15569;42.652;23.040;2022-07-23T02:00:52;93364.09;;;29.23
28305;BMP280;15569;42.652;23.040;2022-07-23T02:03:17;93380.19;;;29.24
28305;BMP280;15569;42.652;23.040;2022-07-23T02:05:43;93368.38;;;29.20
28305;BMP280;15569;42.652;23.040;2022-07-23T02:08:08;93369.75;;;29.21
28305;BMP280;15569;42.652;23.040;2022-07-23T02:10:33;93376.06;;;29.21
28305;BMP280;15569;42.652;23.040;2022-07-23T02:12:59;93357.97;;;29.14
28305;BMP280;15569;42.652;23.040;2022-07-23T02:15:24;93363.53;;;29.16
28305;BMP280;15569;42.652;23.040;2022-07-23T02:17:50;93373.41;;;29.13
28305;BMP280;15569;42.652;23.040;2022-07-23T02:20:15;93371.34;;;29.10
28305;BMP280;15569;42.652;23.040;2022-07-23T02:22:41;93367.91;;;29.07
28305;BMP280;15569;42.652;23.040;2022-07-23T02:25:07;93377.69;;;29.08
28305;BMP280;15569;42.652;23.040;2022-07-23T02:27:33;93372.91;;;29.03
28305;BMP280;15569;42.652;23.040;2022-07-23T02:29:59;93370.16;;;29.01
28305;BMP280;15569;42.652;23.040;2022-07-23T02:32:25;93375.69;;;29.03
28305;BMP280;15569;42.652;23.040;2022-07-23T02:34:50;93371.53;;;29.02
28305;BMP280;15569;42.652;23.040;2022-07-23T02:37:16;93373.06;;;28.95
28305;BMP280;15569;42.652;23.040;2022-07-23T02:39:41;93377.84;;;29.00
28305;BMP280;15569;42.652;23.040;2022-07-23T02:42:07;93373.00;;;28.97
28305;BMP280;15569;42.652;23.040;2022-07-23T02:44:33;93373.09;;;28.93
28305;BMP280;15569;42.652;23.040;2022-07-23T02:46:58;93380.13;;;28.90
28305;BMP280;15569;42.652;23.040;2022-07-23T02:49:23;93389.91;;;28.91
28305;BMP280;15569;42.652;23.040;2022-07-23T02:51:49;93390.66;;;28.89
28305;BMP280;15569;42.652;23.040;2022-07-23T02:54:15;93400.41;;;28.92
28305;BMP280;15569;42.652;23.040;2022-07-23T02:56:40;93403.25;;;28.88
28305;BMP280;15569;42.652;23.040;2022-07-23T02:59:06;93387.06;;;28.93
28305;BMP280;15569;42.652;23.040;2022-07-23T03:01:31;93396.91;;;28.92
28305;BMP280;15569;42.652;23.040;2022-07-23T03:03:56;93392.69;;;28.91
28305;BMP280;15569;42.652;23.040;2022-07-23T03:06:22;93401.22;;;28.85
28305;BMP280;15569;42.652;23.040;2022-07-23T03:08:47;93408.09;;;28.92
28305;BMP280;15569;42.652;23.040;2022-07-23T03:11:13;93408.13;;;28.90
28305;BMP280;15569;42.652;23.040;2022-07-23T03:13:39;93409.50;;;28.91
28305;BMP280;15569;42.652;23.040;2022-07-23T03:16:05;93408.84;;;28.88
28305;BMP280;15569;42.652;23.040;2022-07-23T03:18:31;93415.84;;;28.87
28305;BMP280;15569;42.652;23.040;2022-07-23T03:20:56;93419.34;;;28.88
28305;BMP280;15569;42.652;23.040;2022-07-23T03:23:22;93420.78;;;28.85
28305;BMP280;15569;42.652;23.040;2022-07-23T03:25:47;93423.44;;;28.95
28305;BMP280;15569;42.652;23.040;2022-07-23T03:28:14;93418.66;;;28.89
28305;BMP280;15569;42.652;23.040;2022-07-23T03:30:41;93425.09;;;28.80
28305;BMP280;15569;42.652;23.040;2022-07-23T03:33:07;93423.16;;;28.70
28305;BMP280;15569;42.652;23.040;2022-07-23T03:35:32;93401.75;;;28.53
28305;BMP280;15569;42.652;23.040;2022-07-23T03:37:57;93414.34;;;28.54
28305;BMP280;15569;42.652;23.040;2022-07-23T03:40:23;93426.09;;;28.60
28305;BMP280;15569;42.652;23.040;2022-07-23T03:42:48;93423.88;;;28.67
28305;BMP280;15569;42.652;23.040;2022-07-23T03:45:13;93435.03;;;28.71
28305;BMP280;15569;42.652;23.040;2022-07-23T03:47:39;93416.16;;;28.69
28305;BMP280;15569;42.652;23.040;2022-07-23T03:50:05;93430.84;;;28.72
28305;BMP280;15569;42.652;23.040;2022-07-23T03:52:30;93422.34;;;28.76
28305;BMP280;15569;42.652;23.040;2022-07-23T03:54:56;93420.84;;;28.83
28305;BMP280;15569;42.652;23.040;2022-07-23T03:57:21;93423.53;;;28.89
28305;BMP280;15569;42.652;23.040;2022-07-23T03:59:47;93427.00;;;28.91
28305;BMP280;15569;42.652;23.040;2022-07-23T04:02:12;93426.94;;;28.93
28305;BMP280;15569;42.652;23.040;2022-07-23T04:04:37;93420.59;;;28.97
28305;BMP280;15569;42.652;23.040;2022-07-23T04:07:03;93417.78;;;28.99
28305;BMP280;15569;42.652;23.040;2022-07-23T04:09:29;93420.53;;;29.01
28305;BMP280;15569;42.652;23.040;2022-07-23T04:11:54;93434.34;;;29.11
28305;BMP280;15569;42.652;23.040;2022-07-23T04:14:20;93430.13;;;29.12
28305;BMP280;15569;42.652;23.040;2022-07-23T04:16:45;93419.56;;;29.16
28305;BMP280;15569;42.652;23.040;2022-07-23T04:19:10;93418.81;;;29.18
28305;BMP280;15569;42.652;23.040;2022-07-23T04:21:36;93427.13;;;29.24
28305;BMP280;15569;42.652;23.040;2022-07-23T04:24:01;93432.66;;;29.26
28305;BMP280;15569;42.652;23.040;2022-07-23T04:26:27;93425.50;;;29.35
28305;BMP280;15569;42.652;23.040;2022-07-23T04:28:52;93424.75;;;29.36
28305;BMP280;15569;42.652;23.040;2022-07-23T04:31:18;93429.00;;;29.35
28305;BMP280;15569;42.652;23.040;2022-07-23T04:33:43;93429.53;;;29.44
28305;BMP280;15569;42.652;23.040;2022-07-23T04:36:08;93428.59;;;29.55
28305;BMP280;15569;42.652;23.040;2022-07-23T04:38:34;93433.56;;;29.53
28305;BMP280;15569;42.652;23.040;2022-07-23T04:41:00;93431.44;;;29.53
28305;BMP280;15569;42.652;23.040;2022-07-23T04:43:25;93429.97;;;29.56
28305;BMP280;15569;42.652;23.040;2022-07-23T04:45:51;93426.41;;;29.60
28305;BMP280;15569;42.652;23.040;2022-07-23T04:48:16;93431.25;;;29.63
28305;BMP280;15569;42.652;23.040;2022-07-23T04:50:41;93438.09;;;29.70
28305;BMP280;15569;42.652;23.040;2022-07-23T04:53:07;93435.03;;;29.83
28305;BMP280;15569;42.652;23.040;2022-07-23T04:55:33;93435.34;;;29.32
28305;BMP280;15569;42.652;23.040;2022-07-23T04:57:58;93441.13;;;27.88
28305;BMP280;15569;42.652;23.040;2022-07-23T05:00:24;93443.06;;;28.50
28305;BMP280;15569;42.652;23.040;2022-07-23T05:02:49;93441.19;;;26.31
28305;BMP280;15569;42.652;23.040;2022-07-23T05:05:14;93445.38;;;27.20
28305;BMP280;15569;42.652;23.040;2022-07-23T05:07:40;93442.31;;;26.68
28305;BMP280;15569;42.652;23.040;2022-07-23T05:10:05;93442.50;;;27.28
28305;BMP280;15569;42.652;23.040;2022-07-23T05:12:31;93442.09;;;25.89
28305;BMP280;15569;42.652;23.040;2022-07-23T05:14:57;93449.09;;;25.80
28305;BMP280;15569;42.652;23.040;2022-07-23T05:17:23;93447.09;;;25.46
28305;BMP280;15569;42.652;23.040;2022-07-23T05:19:48;93442.06;;;25.99
28305;BMP280;15569;42.652;23.040;2022-07-23T05:22:14;93452.03;;;24.88
28305;BMP280;15569;42.652;23.040;2022-07-23T05:27:13;93440.63;;;26.04
28305;BMP280;15569;42.652;23.040;2022-07-23T05:29:39;93455.09;;;26.37
28305;BMP280;15569;42.652;23.040;2022-07-23T05:32:05;93447.75;;;25.61
28305;BMP280;15569;42.652;23.040;2022-07-23T05:34:30;93454.78;;;25.42
28305;BMP280;15569;42.652;23.040;2022-07-23T05:36:55;93460.31;;;25.52
28305;BMP280;15569;42.652;23.040;2022-07-23T05:39:21;93460.59;;;26.51
28305;BMP280;15569;42.652;23.040;2022-07-23T05:41:46;93455.91;;;27.12
28305;BMP280;15569;42.652;23.040;2022-07-23T05:44:12;93465.94;;;27.55
28305;BMP280;15569;42.652;23.040;2022-07-23T05:46:37;93453.44;;;27.50
28305;BMP280;15569;42.652;23.040;2022-07-23T05:49:02;93457.66;;;27.47
28305;BMP280;15569;42.652;23.040;2022-07-23T05:51:28;93458.28;;;27.54
28305;BMP280;15569;42.652;23.040;2022-07-23T05:53:53;93465.97;;;28.12
28305;BMP280;15569;42.652;23.040;2022-07-23T05:56:19;93457.72;;;28.49
28305;BMP280;15569;42.652;23.040;2022-07-23T05:58:44;93455.28;;;28.73
28305;BMP280;15569;42.652;23.040;2022-07-23T06:01:10;93445.34;;;28.82
28305;BMP280;15569;42.652;23.040;2022-07-23T06:03:37;93455.59;;;28.96
28305;BMP280;15569;42.652;23.040;2022-07-23T06:06:03;93454.25;;;27.98
28305;BMP280;15569;42.652;23.040;2022-07-23T06:08:28;93459.13;;;28.50
28305;BMP280;15569;42.652;23.040;2022-07-23T06:10:53;93454.63;;;27.70
28305;BMP280;15569;42.652;23.040;2022-07-23T06:13:19;93456.16;;;28.15
28305;BMP280;15569;42.652;23.040;2022-07-23T06:15:44;93451.28;;;28.60
28305;BMP280;15569;42.652;23.040;2022-07-23T06:18:10;93454.84;;;28.99
28305;BMP280;15569;42.652;23.040;2022-07-23T06:20:35;93448.63;;;28.95
28305;BMP280;15569;42.652;23.040;2022-07-23T06:23:01;93449.78;;;28.21
28305;BMP280;15569;42.652;23.040;2022-07-23T06:25:26;93448.66;;;28.93
28305;BMP280;15569;42.652;23.040;2022-07-23T06:27:52;93445.91;;;29.29
28305;BMP280;15569;42.652;23.040;2022-07-23T06:30:17;93445.97;;;28.85
28305;BMP280;15569;42.652;23.040;2022-07-23T06:32:47;93441.84;;;29.22
28305;BMP280;15569;42.652;23.040;2022-07-23T06:35:12;93447.28;;;28.92
28305;BMP280;15569;42.652;23.040;2022-07-23T06:37:38;93452.75;;;27.50
28305;BMP280;15569;42.652;23.040;2022-07-23T06:40:04;93449.34;;;28.00
28305;BMP280;15569;42.652;23.040;2022-07-23T06:42:29;93435.63;;;28.75
28305;BMP280;15569;42.652;23.040;2022-07-23T06:44:55;93431.06;;;28.09
28305;BMP280;15569;42.652;23.040;2022-07-23T06:47:20;93445.72;;;28.10
28305;BMP280;15569;42.652;23.040;2022-07-23T06:49:46;93448.69;;;27.96
28305;BMP280;15569;42.652;23.040;2022-07-23T06:52:11;93444.22;;;26.93
28305;BMP280;15569;42.652;23.040;2022-07-23T06:54:37;93446.53;;;27.43
28305;BMP280;15569;42.652;23.040;2022-07-23T06:57:02;93447.00;;;26.91
28305;BMP280;15569;42.652;23.040;2022-07-23T06:59:27;93442.38;;;27.40
28305;BMP280;15569;42.652;23.040;2022-07-23T07:01:53;93438.50;;;27.72
28305;BMP280;15569;42.652;23.040;2022-07-23T07:04:19;93438.84;;;28.49
28305;BMP280;15569;42.652;23.040;2022-07-23T07:06:44;93440.84;;;28.99
28305;BMP280;15569;42.652;23.040;2022-07-23T07:09:09;93437.44;;;29.33
28305;BMP280;15569;42.652;23.040;2022-07-23T07:11:35;93445.16;;;29.69
28305;BMP280;15569;42.652;23.040;2022-07-23T07:14:00;93426.97;;;30.01
28305;BMP280;15569;42.652;23.040;2022-07-23T07:16:26;93431.91;;;30.31
28305;BMP280;15569;42.652;23.040;2022-07-23T07:18:51;93425.72;;;30.55
28305;BMP280;15569;42.652;23.040;2022-07-23T07:21:17;93431.31;;;30.84
28305;BMP280;15569;42.652;23.040;2022-07-23T07:23:42;93426.63;;;31.03
28305;BMP280;15569;42.652;23.040;2022-07-23T07:26:07;93426.78;;;31.23
28305;BMP280;15569;42.652;23.040;2022-07-23T07:28:33;93429.91;;;31.38
28305;BMP280;15569;42.652;23.040;2022-07-23T07:30:58;93433.00;;;31.52
28305;BMP280;15569;42.652;23.040;2022-07-23T07:33:24;93426.56;;;31.56
28305;BMP280;15569;42.652;23.040;2022-07-23T07:35:49;93424.00;;;31.72
28305;BMP280;15569;42.652;23.040;2022-07-23T07:38:15;93418.69;;;31.85
28305;BMP280;15569;42.652;23.040;2022-07-23T07:40:40;93410.88;;;31.87
28305;BMP280;15569;42.652;23.040;2022-07-23T08:03:47;93418.50;;;30.03
28305;BMP280;15569;42.652;23.040;2022-07-23T08:06:12;93413.31;;;29.83
28305;BMP280;15569;42.652;23.040;2022-07-23T08:08:38;93417.00;;;29.73
28305;BMP280;15569;42.652;23.040;2022-07-23T08:11:03;93403.28;;;29.25
28305;BMP280;15569;42.652;23.040;2022-07-23T08:13:29;93401.97;;;28.83
28305;BMP280;15569;42.652;23.040;2022-07-23T08:15:54;93405.66;;;29.82
28305;BMP280;15569;42.652;23.040;2022-07-23T08:18:19;93404.53;;;30.32
28305;BMP280;15569;42.652;23.040;2022-07-23T08:20:45;93412.63;;;30.46
28305;BMP280;15569;42.652;23.040;2022-07-23T08:23:10;93399.69;;;29.30
28305;BMP280;15569;42.652;23.040;2022-07-23T08:25:45;93407.91;;;29.40
28305;BMP280;15569;42.652;23.040;2022-07-23T08:28:12;93410.16;;;29.99
28305;BMP280;15569;42.652;23.040;2022-07-23T08:30:39;93411.50;;;30.35
28305;BMP280;15569;42.652;23.040;2022-07-23T08:33:08;93404.34;;;30.68
28305;BMP280;15569;42.652;23.040;2022-07-23T08:35:47;93407.66;;;29.85
28305;BMP280;15569;42.652;23.040;2022-07-23T08:38:15;93401.63;;;30.05
28305;BMP280;15569;42.652;23.040;2022-07-23T08:40:45;93398.00;;;30.41
28305;BMP280;15569;42.652;23.040;2022-07-23T08:43:13;93392.06;;;30.53
28305;BMP280;15569;42.652;23.040;2022-07-23T08:45:44;93396.03;;;30.64
28305;BMP280;15569;42.652;23.040;2022-07-23T08:48:15;93399.19;;;30.79
28305;BMP280;15569;42.652;23.040;2022-07-23T08:50:43;93391.50;;;31.28
28305;BMP280;15569;42.652;23.040;2022-07-23T08:53:09;93388.44;;;31.63
28305;BMP280;15569;42.652;23.040;2022-07-23T08:55:35;93401.78;;;31.87
28305;BMP280;15569;42.652;23.040;2022-07-23T08:58:00;93396.84;;;30.87
28305;BMP280;15569;42.652;23.040;2022-07-23T09:00:26;93393.97;;;30.89
28305;BMP280;15569;42.652;23.040;2022-07-23T09:02:51;93392.94;;;31.03
28305;BMP280;15569;42.652;23.040;2022-07-23T09:05:17;93398.91;;;31.40
28305;BMP280;15569;42.652;23.040;2022-07-23T09:08:15;93404.84;;;31.54
28305;BMP280;15569;42.652;23.040;2022-07-23T09:13:22;93395.41;;;31.39
28305;BMP280;15569;42.652;23.040;2022-07-23T09:15:49;93398.88;;;31.17
28305;BMP280;15569;42.652;23.040;2022-07-23T09:18:16;93401.44;;;30.99
28305;BMP280;15569;42.652;23.040;2022-07-23T09:20:42;93395.94;;;31.21
28305;BMP280;15569;42.652;23.040;2022-07-23T09:23:08;93399.19;;;31.05
28305;BMP280;15569;42.652;23.040;2022-07-23T09:25:33;93392.78;;;31.33
28305;BMP280;15569;42.652;23.040;2022-07-23T09:27:59;93400.47;;;31.35
28305;BMP280;15569;42.652;23.040;2022-07-23T09:33:12;93387.56;;;32.13
28305;BMP280;15569;42.652;23.040;2022-07-23T09:38:09;93377.94;;;32.72
28305;BMP280;15569;42.652;23.040;2022-07-23T09:40:34;93372.94;;;32.54
28305;BMP280;15569;42.652;23.040;2022-07-23T09:43:00;93377.84;;;32.95
28305;BMP280;15569;42.652;23.040;2022-07-23T09:45:25;93379.50;;;32.46
28305;BMP280;15569;42.652;23.040;2022-07-23T09:47:50;93376.84;;;32.84
28305;BMP280;15569;42.652;23.040;2022-07-23T09:50:19;93364.53;;;33.14
28305;BMP280;15569;42.652;23.040;2022-07-23T09:52:47;93368.31;;;32.44
28305;BMP280;15569;42.652;23.040;2022-07-23T09:55:14;93359.59;;;32.94
28305;BMP280;15569;42.652;23.040;2022-07-23T09:57:43;93362.16;;;33.20
28305;BMP280;15569;42.652;23.040;2022-07-23T10:00:15;93361.50;;;33.38
28305;BMP280;15569;42.652;23.040;2022-07-23T10:02:40;93357.34;;;32.34
28305;BMP280;15569;42.652;23.040;2022-07-23T10:05:07;93363.69;;;32.55
28305;BMP280;15569;42.652;23.040;2022-07-23T10:07:37;93366.16;;;32.24
28305;BMP280;15569;42.652;23.040;2022-07-23T10:10:04;93355.50;;;32.27
28305;BMP280;15569;42.652;23.040;2022-07-23T10:12:31;93346.25;;;32.30
28305;BMP280;15569;42.652;23.040;2022-07-23T10:17:30;93346.25;;;32.30
28305;BMP280;15569;42.652;23.040;2022-07-23T10:19:56;93347.78;;;32.69
28305;BMP280;15569;42.652;23.040;2022-07-23T10:22:26;93341.31;;;32.93
28305;BMP280;15569;42.652;23.040;2022-07-23T10:24:58;93336.91;;;32.98
28305;BMP280;15569;42.652;23.040;2022-07-23T10:32:53;93335.25;;;33.05
28305;BMP280;15569;42.652;23.040;2022-07-23T10:35:31;93339.03;;;33.55
28305;BMP280;15569;42.652;23.040;2022-07-23T10:38:10;93322.91;;;32.96
28305;BMP280;15569;42.652;23.040;2022-07-23T10:40:36;93323.88;;;33.46
28305;BMP280;15569;42.652;23.040;2022-07-23T10:43:01;93325.78;;;33.51
28305;BMP280;15569;42.652;23.040;2022-07-23T10:45:37;93322.97;;;33.70
28305;BMP280;15569;42.652;23.040;2022-07-23T10:48:20;93322.47;;;33.82
28305;BMP280;15569;42.652;23.040;2022-07-23T10:51:05;93325.09;;;34.04
28305;BMP280;15569;42.652;23.040;2022-07-23T10:56:15;93312.56;;;33.09
28305;BMP280;15569;42.652;23.040;2022-07-23T11:01:41;93303.28;;;33.31
28305;BMP280;15569;42.652;23.040;2022-07-23T11:04:07;93310.38;;;33.30
28305;BMP280;15569;42.652;23.040;2022-07-23T11:17:22;93297.34;;;33.57
28305;BMP280;15569;42.652;23.040;2022-07-23T11:25:02;93294.06;;;34.37
28305;BMP280;15569;42.652;23.040;2022-07-23T11:27:45;93292.09;;;34.17
28305;BMP280;15569;42.652;23.040;2022-07-23T11:35:35;93282.19;;;34.99
28305;BMP280;15569;42.652;23.040;2022-07-23T11:38:06;93273.31;;;34.61
28305;BMP280;15569;42.652;23.040;2022-07-23T11:40:33;93278.16;;;34.30
28305;BMP280;15569;42.652;23.040;2022-07-23T11:43:04;93275.22;;;34.81
28305;BMP280;15569;42.652;23.040;2022-07-23T11:45:34;93265.19;;;34.84
28305;BMP280;15569;42.652;23.040;2022-07-23T11:48:00;93270.66;;;34.88
28305;BMP280;15569;42.652;23.040;2022-07-23T11:50:26;93267.81;;;35.50
28305;BMP280;15569;42.652;23.040;2022-07-23T11:52:52;93270.50;;;35.38
28305;BMP280;15569;42.652;23.040;2022-07-23T11:55:18;93266.03;;;36.01
28305;BMP280;15569;42.652;23.040;2022-07-23T11:57:44;93264.25;;;36.49
28305;BMP280;15569;42.652;23.040;2022-07-23T12:00:13;93267.97;;;36.19
28305;BMP280;15569;42.652;23.040;2022-07-23T12:02:42;93262.00;;;36.10
28305;BMP280;15569;42.652;23.040;2022-07-23T12:05:11;93263.88;;;36.43
28305;BMP280;15569;42.652;23.040;2022-07-23T12:07:39;93258.16;;;36.84
28305;BMP280;15569;42.652;23.040;2022-07-23T12:10:14;93262.56;;;36.69
28305;BMP280;15569;42.652;23.040;2022-07-23T12:12:45;93257.06;;;36.92
28305;BMP280;15569;42.652;23.040;2022-07-23T12:15:13;93266.03;;;37.09
28305;BMP280;15569;42.652;23.040;2022-07-23T12:17:41;93249.75;;;37.22
28305;BMP280;15569;42.652;23.040;2022-07-23T12:20:09;93252.38;;;37.51
28305;BMP280;15569;42.652;23.040;2022-07-23T12:22:38;93240.44;;;37.86
28305;BMP280;15569;42.652;23.040;2022-07-23T12:25:12;93238.25;;;38.11
28305;BMP280;15569;42.652;23.040;2022-07-23T12:27:38;93240.25;;;38.48
28305;BMP280;15569;42.652;23.040;2022-07-23T12:30:18;93247.25;;;36.49
28305;BMP280;15569;42.652;23.040;2022-07-23T12:32:45;93229.56;;;36.49
28305;BMP280;15569;42.652;23.040;2022-07-23T12:35:10;93233.28;;;36.60
28305;BMP280;15569;42.652;23.040;2022-07-23T12:37:38;93237.81;;;35.99
28305;BMP280;15569;42.652;23.040;2022-07-23T12:40:26;93235.44;;;35.62
28305;BMP280;15569;42.652;23.040;2022-07-23T12:43:00;93232.28;;;35.53
28305;BMP280;15569;42.652;23.040;2022-07-23T12:45:28;93220.44;;;36.61
28305;BMP280;15569;42.652;23.040;2022-07-23T12:47:56;93227.09;;;35.87
28305;BMP280;15569;42.652;23.040;2022-07-23T12:51:20;93228.34;;;36.04
28305;BMP280;15569;42.652;23.040;2022-07-23T12:56:11;93212.84;;;36.03
28305;BMP280;15569;42.652;23.040;2022-07-23T12:58:41;93214.22;;;35.90
28305;BMP280;15569;42.652;23.040;2022-07-23T13:01:07;93206.94;;;36.07
28305;BMP280;15569;42.652;23.040;2022-07-23T13:03:38;93213.25;;;35.95
28305;BMP280;15569;42.652;23.040;2022-07-23T13:06:07;93216.38;;;35.60
28305;BMP280;15569;42.652;23.040;2022-07-23T13:08:34;93213.25;;;36.37
28305;BMP280;15569;42.652;23.040;2022-07-23T13:11:00;93210.72;;;37.35
28305;BMP280;15569;42.652;23.040;2022-07-23T13:13:28;93212.53;;;37.65
28305;BMP280;15569;42.652;23.040;2022-07-23T13:15:54;93214.84;;;38.11
28305;BMP280;15569;42.652;23.040;2022-07-23T13:18:20;93212.47;;;38.61
28305;BMP280;15569;42.652;23.040;2022-07-23T13:20:47;93213.00;;;38.87
28305;BMP280;15569;42.652;23.040;2022-07-23T13:23:13;93214.16;;;39.13
28305;BMP280;15569;42.652;23.040;2022-07-23T13:25:39;93209.25;;;39.45
28305;BMP280;15569;42.652;23.040;2022-07-23T13:28:04;93208.88;;;39.93
28305;BMP280;15569;42.652;23.040;2022-07-23T13:30:30;93207.81;;;39.98
28305;BMP280;15569;42.652;23.040;2022-07-23T13:32:55;93201.28;;;40.21
28305;BMP280;15569;42.652;23.040;2022-07-23T13:35:21;93201.91;;;40.42
28305;BMP280;15569;42.652;23.040;2022-07-23T13:37:46;93204.06;;;40.52
28305;BMP280;15569;42.652;23.040;2022-07-23T13:40:12;93187.00;;;40.42
28305;BMP280;15569;42.652;23.040;2022-07-23T13:42:38;93199.94;;;40.70
28305;BMP280;15569;42.652;23.040;2022-07-23T13:45:04;93186.41;;;40.90
28305;BMP280;15569;42.652;23.040;2022-07-23T13:47:30;93192.63;;;41.03
28305;BMP280;15569;42.652;23.040;2022-07-23T13:49:56;93184.22;;;41.01
28305;BMP280;15569;42.652;23.040;2022-07-23T13:52:22;93191.81;;;41.04
28305;BMP280;15569;42.652;23.040;2022-07-23T13:54:47;93189.34;;;41.09
28305;BMP280;15569;42.652;23.040;2022-07-23T13:57:13;93180.72;;;40.90
28305;BMP280;15569;42.652;23.040;2022-07-23T13:59:38;93191.16;;;40.93
28305;BMP280;15569;42.652;23.040;2022-07-23T14:02:04;93190.06;;;40.99
28305;BMP280;15569;42.652;23.040;2022-07-23T14:04:30;93191.03;;;40.66
28305;BMP280;15569;42.652;23.040;2022-07-23T14:06:55;93185.34;;;40.55
28305;BMP280;15569;42.652;23.040;2022-07-23T14:09:22;93184.53;;;41.16
28305;BMP280;15569;42.652;23.040;2022-07-23T14:11:47;93189.34;;;39.87
28305;BMP280;15569;42.652;23.040;2022-07-23T14:14:13;93185.84;;;38.77
28305;BMP280;15569;42.652;23.040;2022-07-23T14:16:38;93184.94;;;39.25
28305;BMP280;15569;42.652;23.040;2022-07-23T14:19:04;93172.16;;;39.89
28305;BMP280;15569;42.652;23.040;2022-07-23T14:21:29;93190.72;;;40.09
28305;BMP280;15569;42.652;23.040;2022-07-23T14:23:55;93182.50;;;38.75
28305;BMP280;15569;42.652;23.040;2022-07-23T14:26:20;93193.63;;;39.23
28305;BMP280;15569;42.652;23.040;2022-07-23T14:28:46;93179.59;;;38.98
28305;BMP280;15569;42.652;23.040;2022-07-23T14:31:11;93180.47;;;39.17
28305;BMP280;15569;42.652;23.040;2022-07-23T14:33:37;93180.03;;;39.67
28305;BMP280;15569;42.652;23.040;2022-07-23T14:36:02;93191.69;;;40.05
28305;BMP280;15569;42.652;23.040;2022-07-23T14:38:28;93176.06;;;39.52
28305;BMP280;15569;42.652;23.040;2022-07-23T14:40:56;93177.34;;;40.47
28305;BMP280;15569;42.652;23.040;2022-07-23T14:43:21;93180.28;;;40.05
28305;BMP280;15569;42.652;23.040;2022-07-23T14:45:46;93176.09;;;39.08
28305;BMP280;15569;42.652;23.040;2022-07-23T14:48:12;93176.19;;;40.13
28305;BMP280;15569;42.652;23.040;2022-07-23T14:50:37;93170.94;;;39.86
28305;BMP280;15569;42.652;23.040;2022-07-23T14:53:03;93173.34;;;40.13
28305;BMP280;15569;42.652;23.040;2022-07-23T14:55:30;93172.47;;;40.86
28305;BMP280;15569;42.652;23.040;2022-07-23T14:57:56;93160.22;;;39.44
28305;BMP280;15569;42.652;23.040;2022-07-23T15:00:21;93155.34;;;38.88
28305;BMP280;15569;42.652;23.040;2022-07-23T15:02:47;93154.34;;;39.36